Port Orford, OR (97465)

9:57 PM PDT on July 05, 2015 (GMT -0700)
Weather Hawk | | Change Station
CLOSE
Current Station
Personal Weather Station
Location: Gold Beach, OR
Elevation: 128 ft
Nearby Weather Stations

Elev 128 ft 42.53 °N, 124.39 °W | Updated 30 seconds ago

Mostly Cloudy
Mostly Cloudy
58.3 °F
Feels Like 58.3 °F
N
0.0
Wind Variable Wind from East
Gusts 0.0 mph

Today
High -- | Low -- °F
--% Chance of Precip.
Yesterday
High -- | Low -- °F
Precip. -- in
5:45 AM 8:59 PM
Waning Gibbous, 79% visible
Pressure 29.98 in
Visibility 10.0 miles
Clouds Overcast 600 ft
Dew Point 56 °F
Humidity 92%
Rainfall in
Snow Depth Not available.
UV 0 out of 12
Pollen 7.00 out of 12
Air Quality Not available.
Flu Activity Not available.
METAR KOTH 060455Z 00000KT 10SM OVC006 14/13 A2998 RMK AO1

More Conditions Fewer Conditions

Pressure 29.98 in
Visibility 10.0 miles
Clouds Overcast 600 ft
Dew Point 56 °F
Humidity 92%
Rainfall in
Snow Depth Not available.
UV 0 out of 12
Pollen 7.00 out of 12
Air Quality Not available.
Flu Activity Not available.
METAR KOTH 060455Z 00000KT 10SM OVC006 14/13 A2998 RMK AO1

More Conditions Fewer Conditions

10-Day Weather Forecast

×

Almanac

Astronomy

Jul. 05, 2015 Rise Set
Actual Time
Civil Twilight
Nautical Twilight
Astronomical Twilight
Moon
Length of Visible Light
Length of Day
Tomorrow will be .
, % of the Moon is Illuminated

Today's Extremes

State Highs State Lows

Community

WunderPhotos

Upload Photos

1,835,487 photos uploaded!

WunderBlogs® & News

Nearby

Air Quality

  Air Quality AQ Index Pollutant
Not available.

Snow Depth

Station Depth Elevation

Earthquake Activity

City Distance Mag. Time & Date
Minimum magnitude displayed is 2.5.

Coastal Water Temperatures

Place Temperature

Stations

Nearby Weather Stations

Station Location Temp. Windchill Dew Point Humidity Wind Precip. Elev Updated Type